»·PEaware :: NKS906 KPHX-KDEN

NKS906 :: KPHX-KDEN

FLIGHT INFORMATION

Flight Status: Arrived
Operator:
Spirit Airlines
More flights by this operator :: More flights under this callsign
Pilot: Marcelo T. (6927)
Aircraft: AIRBUS A320
(A320)
More flights by this aircraft type
Origin: KPHX Phoenix Sky Harbor Intl
United States
Destination: KDEN Denver Intl
United States
More flights between these airports :: More routes between these airports
Route: +YOTES5 YOOPR OURAY LDORA2
File this flight plan on PilotEdge
Remarks: PBN / A1B1C1D1L1O1S2 DOF / 170414 REG / N643NK EET / KZDV0024 SEL / CQAB OPR / SPIRIT AIRLINES
Altitude:
(Current/Filed)
37,000ft
Speed:
(Current/Filed)
448kts
Departed: 14-Apr-17 11:49 AM
Arrived: 14-Apr-17 01:24 PM
Distance/Time
Traveled:
522nm/1:35
Distance/Time
To Go:
Arrived

Flight Plot

Page will automatically refresh every two minutes.

Flight plan parsing failed; only flown route is shown


Map Options




Map Legend


Flown Route
Filed Route
Departure Airport
Arrival Airport
Navaid (VOR, NDB)
Fix

Horizontal Profiles

Position Reports

Time Latitude Longitude Heading Altitude Ground
Speed
14-Apr-17 11:25 33.434500 -112.008062 270 1149ft 0kts
14-Apr-17 11:26 33.434500 -112.008062 270 1149ft 0kts
14-Apr-17 11:27 33.434500 -112.008062 270 1149ft 0kts
14-Apr-17 11:28 33.434500 -112.008062 270 1149ft 0kts
14-Apr-17 11:29 33.434500 -112.008062 270 1149ft 0kts
14-Apr-17 11:30 33.434500 -112.008062 270 1149ft 0kts
14-Apr-17 11:31 33.434500 -112.008062 270 1149ft 0kts
14-Apr-17 11:32 33.434500 -112.008062 270 1149ft 0kts
14-Apr-17 11:33 33.434500 -112.008062 270 1149ft 0kts
14-Apr-17 11:34 33.434500 -112.008062 270 1149ft 0kts
14-Apr-17 11:35 33.434500 -112.008062 270 1149ft 0kts
14-Apr-17 11:36 33.434500 -112.008062 270 1149ft 0kts
14-Apr-17 11:37 33.434500 -112.008062 270 1149ft 0kts
14-Apr-17 11:38 33.434500 -112.008062 270 1149ft 0kts
14-Apr-17 11:39 33.434500 -112.008062 270 1149ft 0kts
14-Apr-17 11:40 33.434500 -112.008062 270 1149ft 0kts
14-Apr-17 11:41 33.434498 -112.007435 270 1149ft 2kts
14-Apr-17 11:42 33.434498 -112.007403 270 1149ft 0kts
14-Apr-17 11:43 33.434498 -112.007403 270 1149ft 0kts
14-Apr-17 11:44 33.434498 -112.007410 270 1149ft 0kts
14-Apr-17 11:45 33.432838 -112.008649 270 1149ft 13kts
14-Apr-17 11:46 33.432840 -112.013700 269 1149ft 15kts
14-Apr-17 11:47 33.432839 -112.018465 270 1149ft 14kts
14-Apr-17 11:48 33.432846 -112.024043 270 1149ft 17kts
14-Apr-17 11:49 33.431844 -112.026998 179 1149ft 6kts
14-Apr-17 11:50 33.431021 -112.024570 89 1149ft 48kts
14-Apr-17 11:51 33.431332 -111.978774 86 2100ft 176kts
14-Apr-17 11:52 33.434806 -111.914127 89 3675ft 241kts
14-Apr-17 11:53 33.472054 -111.846672 5 6845ft 296kts
14-Apr-17 11:54 33.555997 -111.841997 0 10514ft 321kts
14-Apr-17 11:55 33.655560 -111.833183 6 13169ft 381kts
14-Apr-17 11:56 33.761686 -111.800694 13 16654ft 405kts
14-Apr-17 11:57 33.861512 -111.730471 35 19776ft 429kts
14-Apr-17 11:58 33.958151 -111.641505 35 22366ft 445kts
14-Apr-17 11:59 34.060843 -111.554603 29 24563ft 458kts
14-Apr-17 12:00 34.169718 -111.471454 29 26508ft 469kts
14-Apr-17 12:01 34.281340 -111.385887 29 28187ft 479kts
14-Apr-17 12:02 34.394852 -111.298517 29 29604ft 489kts
14-Apr-17 12:03 34.510020 -111.209536 29 31015ft 493kts
14-Apr-17 12:04 34.625428 -111.120107 28 32447ft 492kts
14-Apr-17 12:05 34.745089 -111.040267 24 33758ft 490kts
14-Apr-17 12:06 34.865352 -110.961666 24 35036ft 489kts
14-Apr-17 12:07 34.984924 -110.883249 24 36223ft 488kts
14-Apr-17 12:08 35.104370 -110.804607 24 36990ft 488kts
14-Apr-17 12:09 35.223197 -110.726116 24 37006ft 485kts
14-Apr-17 12:10 35.342229 -110.647212 24 37010ft 485kts
14-Apr-17 12:11 35.460818 -110.568321 24 37019ft 485kts
14-Apr-17 12:12 35.579358 -110.489188 24 37022ft 485kts
14-Apr-17 12:13 35.688886 -110.391761 44 37023ft 494kts
14-Apr-17 12:14 35.778797 -110.263847 46 37029ft 494kts
14-Apr-17 12:15 35.869260 -110.135640 46 37037ft 494kts
14-Apr-17 12:16 35.959346 -110.007654 47 37044ft 494kts
14-Apr-17 12:17 36.049294 -109.879373 47 37050ft 494kts
14-Apr-17 12:18 36.139101 -109.750789 47 37054ft 494kts
14-Apr-17 12:19 36.229151 -109.621344 47 37057ft 496kts
14-Apr-17 12:20 36.318919 -109.491818 47 37059ft 496kts
14-Apr-17 12:21 36.408522 -109.361999 47 37060ft 496kts
14-Apr-17 12:22 36.498024 -109.231846 47 37059ft 496kts
14-Apr-17 12:23 36.587398 -109.101324 47 37056ft 496kts
14-Apr-17 12:24 36.676998 -108.969986 47 37057ft 496kts
14-Apr-17 12:25 36.766156 -108.838755 48 37046ft 497kts
14-Apr-17 12:26 36.855214 -108.707170 48 37021ft 497kts
14-Apr-17 12:27 36.944139 -108.575236 48 37020ft 497kts
14-Apr-17 12:28 37.033218 -108.442551 48 37022ft 497kts
14-Apr-17 12:29 37.121751 -108.310159 48 37027ft 496kts
14-Apr-17 12:30 37.210108 -108.177486 48 37041ft 496kts
14-Apr-17 12:31 37.298357 -108.044464 48 37055ft 496kts
14-Apr-17 12:32 37.386117 -107.911624 49 37068ft 494kts
14-Apr-17 12:33 37.473894 -107.778199 49 37087ft 494kts
14-Apr-17 12:34 37.561262 -107.644891 49 37098ft 494kts
14-Apr-17 12:35 37.648459 -107.511264 49 37104ft 494kts
14-Apr-17 12:36 37.735356 -107.377568 49 37105ft 493kts
14-Apr-17 12:37 37.822333 -107.243212 49 37100ft 492kts
14-Apr-17 12:38 37.908691 -107.109259 49 37161ft 492kts
14-Apr-17 12:39 37.994869 -106.975028 50 37127ft 491kts
14-Apr-17 12:40 38.080756 -106.840704 50 37157ft 491kts
14-Apr-17 12:41 38.166456 -106.706097 50 37130ft 489kts
14-Apr-17 12:43 38.269111 -106.551892 44 36780ft 489kts
14-Apr-17 12:43 38.350111 -106.451881 43 35947ft 487kts
14-Apr-17 12:44 38.447364 -106.331831 43 34948ft 488kts
14-Apr-17 12:45 38.544926 -106.210569 44 33945ft 489kts
14-Apr-17 12:46 38.641849 -106.089191 44 32321ft 483kts
14-Apr-17 12:47 38.736307 -105.970313 43 29790ft 470kts
14-Apr-17 12:48 38.828152 -105.854510 43 27335ft 457kts
14-Apr-17 12:49 38.916930 -105.741684 43 24990ft 442kts
14-Apr-17 12:50 39.003558 -105.631233 43 24173ft 433kts
14-Apr-17 12:51 39.088014 -105.523350 43 23708ft 424kts
14-Apr-17 12:52 39.170638 -105.417260 43 21418ft 410kts
14-Apr-17 12:53 39.246046 -105.316110 54 19444ft 372kts
14-Apr-17 12:54 39.279147 -105.191643 77 17828ft 364kts
14-Apr-17 12:55 39.302573 -105.066471 77 16406ft 354kts
14-Apr-17 12:56 39.324824 -104.946913 77 15604ft 323kts
14-Apr-17 12:57 39.346545 -104.841953 72 14810ft 294kts
14-Apr-17 12:58 39.373327 -104.744199 69 13635ft 277kts
14-Apr-17 12:59 39.421530 -104.672286 18 12756ft 270kts
14-Apr-17 13:00 39.494611 -104.665427 359 11879ft 265kts
14-Apr-17 13:01 39.564354 -104.663871 359 10599ft 275kts
14-Apr-17 13:02 39.642004 -104.662780 0 9064ft 275kts
14-Apr-17 13:03 39.715575 -104.661859 0 7628ft 252kts
14-Apr-17 13:04 39.780062 -104.661119 3 6408ft 206kts
14-Apr-17 13:05 39.838662 -104.659568 5 8097ft 221kts
14-Apr-17 13:06 39.902778 -104.654981 1 8996ft 231kts
14-Apr-17 13:07 39.967362 -104.653848 1 8998ft 231kts
14-Apr-17 13:08 40.031540 -104.652748 1 8983ft 229kts
14-Apr-17 13:09 40.066879 -104.601886 110 8982ft 234kts
14-Apr-17 13:10 40.016653 -104.556522 177 8991ft 238kts
14-Apr-17 13:11 39.950795 -104.554847 177 8985ft 236kts
14-Apr-17 13:12 39.884800 -104.553082 177 8985ft 236kts
14-Apr-17 13:13 39.819032 -104.551288 177 9005ft 236kts
14-Apr-17 13:14 39.753428 -104.549350 177 9010ft 236kts
14-Apr-17 13:15 39.687880 -104.547281 177 9009ft 236kts
14-Apr-17 13:16 39.622146 -104.545104 177 8888ft 237kts
14-Apr-17 13:17 39.556939 -104.543049 177 8273ft 232kts
14-Apr-17 13:18 39.510351 -104.587406 276 8028ft 239kts
14-Apr-17 13:19 39.552030 -104.644137 328 8028ft 232kts
14-Apr-17 13:20 39.611790 -104.662897 3 8008ft 224kts
14-Apr-17 13:21 39.674254 -104.662304 3 8007ft 222kts
14-Apr-17 13:22 39.732357 -104.661661 4 7312ft 196kts
14-Apr-17 13:23 39.780729 -104.661109 4 6342ft 150kts
14-Apr-17 13:24 39.822976 -104.660638 4 5591ft 148kts
14-Apr-17 13:25 39.849374 -104.660283 0 5445ft 32kts
14-Apr-17 13:26 39.852975 -104.663624 270 5445ft 14kts
14-Apr-17 13:27 39.852766 -104.669067 270 5445ft 16kts
14-Apr-17 13:28 39.853440 -104.670137 0 5445ft 0kts
14-Apr-17 13:29 39.853440 -104.670137 0 5445ft 0kts
14-Apr-17 13:30 39.853440 -104.670137 0 5445ft 0kts

Navigation Log

Ident Type
Flight plan parsing failed, navigation log unavailable